sensor_id;sensor_type;location;lat;lon;timestamp;temperature;humidity
7030;DHT22;3556;53.500;10.176;2023-08-31T00:00:33;13.70;99.90
7030;DHT22;3556;53.500;10.176;2023-08-31T00:03:00;13.70;99.90
7030;DHT22;3556;53.500;10.176;2023-08-31T00:05:25;13.60;99.90
7030;DHT22;3556;53.500;10.176;2023-08-31T00:07:54;13.70;99.90
7030;DHT22;3556;53.500;10.176;2023-08-31T00:10:20;13.60;99.90
7030;DHT22;3556;53.500;10.176;2023-08-31T00:12:45;13.60;99.90
7030;DHT22;3556;53.500;10.176;2023-08-31T00:15:11;13.60;99.90
7030;DHT22;3556;53.500;10.176;2023-08-31T00:17:37;13.60;99.90
7030;DHT22;3556;53.500;10.176;2023-08-31T00:20:04;13.60;99.90
7030;DHT22;3556;53.500;10.176;2023-08-31T00:22:32;13.60;99.90
7030;DHT22;3556;53.500;10.176;2023-08-31T00:24:58;13.60;99.90
7030;DHT22;3556;53.500;10.176;2023-08-31T00:27:24;13.50;99.90
7030;DHT22;3556;53.500;10.176;2023-08-31T00:29:49;13.50;99.90
7030;DHT22;3556;53.500;10.176;2023-08-31T00:32:17;13.50;99.90
7030;DHT22;3556;53.500;10.176;2023-08-31T00:34:44;13.50;99.90
7030;DHT22;3556;53.500;10.176;2023-08-31T00:37:09;13.50;99.90
7030;DHT22;3556;53.500;10.176;2023-08-31T00:39:35;13.40;99.90
7030;DHT22;3556;53.500;10.176;2023-08-31T00:42:01;13.40;99.90
7030;DHT22;3556;53.500;10.176;2023-08-31T00:44:26;13.40;99.90
7030;DHT22;3556;53.500;10.176;2023-08-31T00:46:52;13.40;99.90
7030;DHT22;3556;53.500;10.176;2023-08-31T00:49:18;13.40;99.90
7030;DHT22;3556;53.500;10.176;2023-08-31T00:51:45;13.30;99.90
7030;DHT22;3556;53.500;10.176;2023-08-31T00:54:17;13.30;99.90
7030;DHT22;3556;53.500;10.176;2023-08-31T00:56:43;13.30;99.90
7030;DHT22;3556;53.500;10.176;2023-08-31T00:59:09;13.30;99.90
7030;DHT22;3556;53.500;10.176;2023-08-31T01:01:36;13.30;99.90
7030;DHT22;3556;53.500;10.176;2023-08-31T01:12:11;13.20;99.90
7030;DHT22;3556;53.500;10.176;2023-08-31T01:15:10;13.20;99.90
7030;DHT22;3556;53.500;10.176;2023-08-31T01:17:48;13.10;99.90
7030;DHT22;3556;53.500;10.176;2023-08-31T01:20:23;13.10;99.90
7030;DHT22;3556;53.500;10.176;2023-08-31T01:22:57;13.10;99.90
7030;DHT22;3556;53.500;10.176;2023-08-31T01:25:25;13.00;99.90
7030;DHT22;3556;53.500;10.176;2023-08-31T01:27:51;13.00;99.90
7030;DHT22;3556;53.500;10.176;2023-08-31T01:30:17;13.00;99.90
7030;DHT22;3556;53.500;10.176;2023-08-31T01:32:44;13.00;99.90
7030;DHT22;3556;53.500;10.176;2023-08-31T01:35:15;12.90;99.90
7030;DHT22;3556;53.500;10.176;2023-08-31T01:37:53;12.90;99.90
7030;DHT22;3556;53.500;10.176;2023-08-31T01:43:08;12.80;99.90
7030;DHT22;3556;53.500;10.176;2023-08-31T01:45:35;12.80;99.90
7030;DHT22;3556;53.500;10.176;2023-08-31T01:48:01;12.80;99.90
7030;DHT22;3556;53.500;10.176;2023-08-31T01:50:27;12.80;99.90
7030;DHT22;3556;53.500;10.176;2023-08-31T01:52:52;12.80;99.90
7030;DHT22;3556;53.500;10.176;2023-08-31T01:55:24;12.70;99.90
7030;DHT22;3556;53.500;10.176;2023-08-31T01:57:50;12.70;99.90
7030;DHT22;3556;53.500;10.176;2023-08-31T02:00:17;12.70;99.90
7030;DHT22;3556;53.500;10.176;2023-08-31T02:02:43;12.70;99.90
7030;DHT22;3556;53.500;10.176;2023-08-31T02:05:09;12.70;99.90
7030;DHT22;3556;53.500;10.176;2023-08-31T02:07:35;12.60;99.90
7030;DHT22;3556;53.500;10.176;2023-08-31T02:10:01;12.60;99.90
7030;DHT22;3556;53.500;10.176;2023-08-31T02:12:26;12.60;99.90
7030;DHT22;3556;53.500;10.176;2023-08-31T02:14:52;12.50;99.90
7030;DHT22;3556;53.500;10.176;2023-08-31T02:17:18;12.50;99.90
7030;DHT22;3556;53.500;10.176;2023-08-31T02:19:43;12.50;99.90
7030;DHT22;3556;53.500;10.176;2023-08-31T02:22:09;12.50;99.90
7030;DHT22;3556;53.500;10.176;2023-08-31T02:24:35;12.40;99.90
7030;DHT22;3556;53.500;10.176;2023-08-31T02:27:00;12.40;99.90
7030;DHT22;3556;53.500;10.176;2023-08-31T02:29:26;12.40;99.90
7030;DHT22;3556;53.500;10.176;2023-08-31T02:31:51;12.40;99.90
7030;DHT22;3556;53.500;10.176;2023-08-31T02:34:17;12.30;99.90
7030;DHT22;3556;53.500;10.176;2023-08-31T02:36:43;12.30;99.90
7030;DHT22;3556;53.500;10.176;2023-08-31T02:39:08;12.30;99.90
7030;DHT22;3556;53.500;10.176;2023-08-31T02:41:34;12.30;99.90
7030;DHT22;3556;53.500;10.176;2023-08-31T02:44:00;12.30;99.90
7030;DHT22;3556;53.500;10.176;2023-08-31T02:46:26;12.20;99.90
7030;DHT22;3556;53.500;10.176;2023-08-31T02:48:51;12.20;99.90
7030;DHT22;3556;53.500;10.176;2023-08-31T02:51:17;12.20;99.90
7030;DHT22;3556;53.500;10.176;2023-08-31T02:53:42;12.10;99.90
7030;DHT22;3556;53.500;10.176;2023-08-31T02:56:08;12.10;99.90
7030;DHT22;3556;53.500;10.176;2023-08-31T02:58:34;12.10;99.90
7030;DHT22;3556;53.500;10.176;2023-08-31T03:01:09;12.10;99.90
7030;DHT22;3556;53.500;10.176;2023-08-31T03:03:37;12.10;99.90
7030;DHT22;3556;53.500;10.176;2023-08-31T03:06:02;12.00;99.90
7030;DHT22;3556;53.500;10.176;2023-08-31T03:08:28;12.00;99.90
7030;DHT22;3556;53.500;10.176;2023-08-31T03:10:56;12.00;99.90
7030;DHT22;3556;53.500;10.176;2023-08-31T03:13:22;12.00;99.90
7030;DHT22;3556;53.500;10.176;2023-08-31T03:15:47;12.00;99.90
7030;DHT22;3556;53.500;10.176;2023-08-31T03:18:13;11.90;99.90
7030;DHT22;3556;53.500;10.176;2023-08-31T03:20:39;11.90;99.90
7030;DHT22;3556;53.500;10.176;2023-08-31T03:23:04;11.90;99.90
7030;DHT22;3556;53.500;10.176;2023-08-31T03:25:30;11.80;99.90
7030;DHT22;3556;53.500;10.176;2023-08-31T03:27:56;11.80;99.90
7030;DHT22;3556;53.500;10.176;2023-08-31T03:30:21;11.80;99.90
7030;DHT22;3556;53.500;10.176;2023-08-31T03:32:47;11.80;99.90
7030;DHT22;3556;53.500;10.176;2023-08-31T03:35:13;11.80;99.90
7030;DHT22;3556;53.500;10.176;2023-08-31T03:37:38;11.70;99.90
7030;DHT22;3556;53.500;10.176;2023-08-31T03:40:04;11.70;99.90
7030;DHT22;3556;53.500;10.176;2023-08-31T03:42:32;11.60;99.90
7030;DHT22;3556;53.500;10.176;2023-08-31T03:44:59;11.60;99.90
7030;DHT22;3556;53.500;10.176;2023-08-31T03:47:24;11.60;99.90
7030;DHT22;3556;53.500;10.176;2023-08-31T03:49:50;11.60;99.90
7030;DHT22;3556;53.500;10.176;2023-08-31T03:52:16;11.50;99.90
7030;DHT22;3556;53.500;10.176;2023-08-31T03:54:41;11.50;99.90
7030;DHT22;3556;53.500;10.176;2023-08-31T03:57:07;11.50;99.90
7030;DHT22;3556;53.500;10.176;2023-08-31T03:59:32;11.50;99.90
7030;DHT22;3556;53.500;10.176;2023-08-31T04:01:58;11.50;99.90
7030;DHT22;3556;53.500;10.176;2023-08-31T04:04:25;11.40;99.90
7030;DHT22;3556;53.500;10.176;2023-08-31T04:06:50;11.40;99.90
7030;DHT22;3556;53.500;10.176;2023-08-31T04:09:16;11.40;99.90
7030;DHT22;3556;53.500;10.176;2023-08-31T04:11:42;11.40;99.90
7030;DHT22;3556;53.500;10.176;2023-08-31T04:14:08;11.30;99.90
7030;DHT22;3556;53.500;10.176;2023-08-31T04:16:33;11.30;99.90
7030;DHT22;3556;53.500;10.176;2023-08-31T04:18:59;11.30;99.90
7030;DHT22;3556;53.500;10.176;2023-08-31T04:21:25;11.30;99.90
7030;DHT22;3556;53.500;10.176;2023-08-31T04:23:50;11.30;99.90
7030;DHT22;3556;53.500;10.176;2023-08-31T04:26:16;11.20;99.90
7030;DHT22;3556;53.500;10.176;2023-08-31T04:28:43;11.20;99.90
7030;DHT22;3556;53.500;10.176;2023-08-31T04:31:09;11.20;99.90
7030;DHT22;3556;53.500;10.176;2023-08-31T04:33:36;11.10;99.90
7030;DHT22;3556;53.500;10.176;2023-08-31T04:36:02;11.10;99.90
7030;DHT22;3556;53.500;10.176;2023-08-31T04:38:29;11.10;99.90
7030;DHT22;3556;53.500;10.176;2023-08-31T04:40:54;11.10;99.90
7030;DHT22;3556;53.500;10.176;2023-08-31T04:43:23;11.10;99.90
7030;DHT22;3556;53.500;10.176;2023-08-31T04:45:48;11.10;99.90
7030;DHT22;3556;53.500;10.176;2023-08-31T04:48:14;11.10;99.90
7030;DHT22;3556;53.500;10.176;2023-08-31T04:50:41;11.00;99.90
7030;DHT22;3556;53.500;10.176;2023-08-31T04:53:06;11.00;99.90
7030;DHT22;3556;53.500;10.176;2023-08-31T04:55:32;11.00;99.90
7030;DHT22;3556;53.500;10.176;2023-08-31T04:57:57;11.00;99.90
7030;DHT22;3556;53.500;10.176;2023-08-31T05:00:23;11.00;99.90
7030;DHT22;3556;53.500;10.176;2023-08-31T05:02:49;10.90;99.90
7030;DHT22;3556;53.500;10.176;2023-08-31T05:05:14;10.90;99.90
7030;DHT22;3556;53.500;10.176;2023-08-31T05:07:40;10.90;99.90
7030;DHT22;3556;53.500;10.176;2023-08-31T05:10:06;10.90;99.90
7030;DHT22;3556;53.500;10.176;2023-08-31T05:12:32;10.90;99.90
7030;DHT22;3556;53.500;10.176;2023-08-31T05:14:58;10.90;99.90
7030;DHT22;3556;53.500;10.176;2023-08-31T05:17:23;10.90;99.90
7030;DHT22;3556;53.500;10.176;2023-08-31T05:19:49;10.90;99.90
7030;DHT22;3556;53.500;10.176;2023-08-31T05:22:15;11.00;99.90
7030;DHT22;3556;53.500;10.176;2023-08-31T05:24:41;11.00;99.90
7030;DHT22;3556;53.500;10.176;2023-08-31T05:27:07;11.00;99.90
7030;DHT22;3556;53.500;10.176;2023-08-31T05:29:32;11.10;99.90
7030;DHT22;3556;53.500;10.176;2023-08-31T05:31:58;11.10;99.90
7030;DHT22;3556;53.500;10.176;2023-08-31T05:34:25;11.10;99.90
7030;DHT22;3556;53.500;10.176;2023-08-31T05:36:50;11.10;99.90
7030;DHT22;3556;53.500;10.176;2023-08-31T05:39:16;11.20;99.90
7030;DHT22;3556;53.500;10.176;2023-08-31T05:41:43;11.20;99.90
7030;DHT22;3556;53.500;10.176;2023-08-31T05:44:09;11.20;99.90
7030;DHT22;3556;53.500;10.176;2023-08-31T05:46:35;11.30;99.90
7030;DHT22;3556;53.500;10.176;2023-08-31T05:49:01;11.30;99.90
7030;DHT22;3556;53.500;10.176;2023-08-31T05:51:26;11.40;99.90
7030;DHT22;3556;53.500;10.176;2023-08-31T05:53:52;11.40;99.90
7030;DHT22;3556;53.500;10.176;2023-08-31T05:56:19;11.50;99.90
7030;DHT22;3556;53.500;10.176;2023-08-31T05:58:45;11.60;99.90
7030;DHT22;3556;53.500;10.176;2023-08-31T06:01:10;11.60;99.90
7030;DHT22;3556;53.500;10.176;2023-08-31T06:03:36;11.60;99.90
7030;DHT22;3556;53.500;10.176;2023-08-31T06:06:02;11.70;99.90
7030;DHT22;3556;53.500;10.176;2023-08-31T06:08:28;11.80;99.90
7030;DHT22;3556;53.500;10.176;2023-08-31T06:10:56;11.80;99.90
7030;DHT22;3556;53.500;10.176;2023-08-31T06:13:21;11.90;99.90
7030;DHT22;3556;53.500;10.176;2023-08-31T06:15:47;11.90;99.90
7030;DHT22;3556;53.500;10.176;2023-08-31T06:18:13;12.00;99.90
7030;DHT22;3556;53.500;10.176;2023-08-31T06:20:39;12.10;99.90
7030;DHT22;3556;53.500;10.176;2023-08-31T06:23:05;12.10;99.90
7030;DHT22;3556;53.500;10.176;2023-08-31T06:25:30;12.20;99.90
7030;DHT22;3556;53.500;10.176;2023-08-31T06:27:57;12.20;99.90
7030;DHT22;3556;53.500;10.176;2023-08-31T06:30:23;12.30;99.90
7030;DHT22;3556;53.500;10.176;2023-08-31T06:32:48;12.30;99.90
7030;DHT22;3556;53.500;10.176;2023-08-31T06:35:15;12.40;99.90
7030;DHT22;3556;53.500;10.176;2023-08-31T06:37:41;12.40;99.90
7030;DHT22;3556;53.500;10.176;2023-08-31T06:40:08;12.50;99.90
7030;DHT22;3556;53.500;10.176;2023-08-31T06:42:35;12.50;99.90
7030;DHT22;3556;53.500;10.176;2023-08-31T06:45:05;12.50;99.90
7030;DHT22;3556;53.500;10.176;2023-08-31T06:47:32;12.60;99.90
7030;DHT22;3556;53.500;10.176;2023-08-31T06:49:57;12.60;99.90
7030;DHT22;3556;53.500;10.176;2023-08-31T06:52:24;12.60;99.90
7030;DHT22;3556;53.500;10.176;2023-08-31T06:54:49;12.60;99.90
7030;DHT22;3556;53.500;10.176;2023-08-31T06:57:15;12.70;99.90
7030;DHT22;3556;53.500;10.176;2023-08-31T06:59:41;12.70;99.90
7030;DHT22;3556;53.500;10.176;2023-08-31T07:02:06;12.80;99.90
7030;DHT22;3556;53.500;10.176;2023-08-31T07:04:32;12.80;99.90
7030;DHT22;3556;53.500;10.176;2023-08-31T07:06:57;12.90;99.90
7030;DHT22;3556;53.500;10.176;2023-08-31T07:09:23;13.00;99.90
7030;DHT22;3556;53.500;10.176;2023-08-31T07:11:49;13.10;99.90
7030;DHT22;3556;53.500;10.176;2023-08-31T07:14:14;13.10;99.90
7030;DHT22;3556;53.500;10.176;2023-08-31T07:16:40;13.20;99.90
7030;DHT22;3556;53.500;10.176;2023-08-31T07:19:05;13.20;99.90
7030;DHT22;3556;53.500;10.176;2023-08-31T07:21:31;13.20;99.90
7030;DHT22;3556;53.500;10.176;2023-08-31T07:23:57;13.30;99.90
7030;DHT22;3556;53.500;10.176;2023-08-31T07:26:22;13.40;99.90
7030;DHT22;3556;53.500;10.176;2023-08-31T07:28:48;13.50;99.90
7030;DHT22;3556;53.500;10.176;2023-08-31T07:31:14;13.50;99.90
7030;DHT22;3556;53.500;10.176;2023-08-31T07:33:40;13.60;99.90
7030;DHT22;3556;53.500;10.176;2023-08-31T07:36:06;13.70;99.90
7030;DHT22;3556;53.500;10.176;2023-08-31T07:38:32;13.70;99.90
7030;DHT22;3556;53.500;10.176;2023-08-31T07:40:58;13.80;99.90
7030;DHT22;3556;53.500;10.176;2023-08-31T07:43:25;13.90;99.90
7030;DHT22;3556;53.500;10.176;2023-08-31T07:45:51;14.00;99.90
7030;DHT22;3556;53.500;10.176;2023-08-31T07:48:17;14.10;99.90
7030;DHT22;3556;53.500;10.176;2023-08-31T07:50:43;14.20;99.90
7030;DHT22;3556;53.500;10.176;2023-08-31T07:53:09;14.30;99.90
7030;DHT22;3556;53.500;10.176;2023-08-31T07:55:34;14.30;99.90
7030;DHT22;3556;53.500;10.176;2023-08-31T07:58:01;14.40;99.90
7030;DHT22;3556;53.500;10.176;2023-08-31T08:00:26;14.40;99.90
7030;DHT22;3556;53.500;10.176;2023-08-31T08:02:52;14.50;99.90
7030;DHT22;3556;53.500;10.176;2023-08-31T08:05:18;14.50;99.90
7030;DHT22;3556;53.500;10.176;2023-08-31T08:07:43;14.60;99.90
7030;DHT22;3556;53.500;10.176;2023-08-31T08:10:11;14.70;99.90
7030;DHT22;3556;53.500;10.176;2023-08-31T08:12:41;14.70;99.90
7030;DHT22;3556;53.500;10.176;2023-08-31T08:15:09;14.80;99.90
7030;DHT22;3556;53.500;10.176;2023-08-31T08:17:35;14.90;99.90
7030;DHT22;3556;53.500;10.176;2023-08-31T08:20:00;15.00;99.90
7030;DHT22;3556;53.500;10.176;2023-08-31T08:22:26;15.00;99.90
7030;DHT22;3556;53.500;10.176;2023-08-31T08:24:52;15.00;99.90
7030;DHT22;3556;53.500;10.176;2023-08-31T08:27:17;15.00;99.90
7030;DHT22;3556;53.500;10.176;2023-08-31T08:29:44;15.00;99.90
7030;DHT22;3556;53.500;10.176;2023-08-31T08:32:10;14.90;99.90
7030;DHT22;3556;53.500;10.176;2023-08-31T08:34:36;14.90;99.90
7030;DHT22;3556;53.500;10.176;2023-08-31T08:37:01;14.80;99.90
7030;DHT22;3556;53.500;10.176;2023-08-31T08:39:29;14.80;99.90
7030;DHT22;3556;53.500;10.176;2023-08-31T08:41:57;14.80;99.90
7030;DHT22;3556;53.500;10.176;2023-08-31T08:44:25;14.80;99.90
7030;DHT22;3556;53.500;10.176;2023-08-31T08:46:52;14.80;99.90
7030;DHT22;3556;53.500;10.176;2023-08-31T08:49:18;14.80;99.90
7030;DHT22;3556;53.500;10.176;2023-08-31T08:51:45;14.90;99.90
7030;DHT22;3556;53.500;10.176;2023-08-31T08:54:13;14.90;99.90
7030;DHT22;3556;53.500;10.176;2023-08-31T08:56:39;15.00;99.90
7030;DHT22;3556;53.500;10.176;2023-08-31T08:59:05;15.00;99.90
7030;DHT22;3556;53.500;10.176;2023-08-31T09:01:32;15.10;99.90
7030;DHT22;3556;53.500;10.176;2023-08-31T09:04:00;15.20;99.90
7030;DHT22;3556;53.500;10.176;2023-08-31T09:06:27;15.30;99.90
7030;DHT22;3556;53.500;10.176;2023-08-31T09:08:56;15.40;99.90
7030;DHT22;3556;53.500;10.176;2023-08-31T09:11:23;15.40;99.90
7030;DHT22;3556;53.500;10.176;2023-08-31T09:13:50;15.40;99.90
7030;DHT22;3556;53.500;10.176;2023-08-31T09:16:28;15.40;99.90
7030;DHT22;3556;53.500;10.176;2023-08-31T09:18:55;15.50;99.90
7030;DHT22;3556;53.500;10.176;2023-08-31T09:21:21;15.50;99.90
7030;DHT22;3556;53.500;10.176;2023-08-31T09:23:56;15.50;99.90
7030;DHT22;3556;53.500;10.176;2023-08-31T09:26:25;15.50;99.90
7030;DHT22;3556;53.500;10.176;2023-08-31T09:28:51;15.50;99.90
7030;DHT22;3556;53.500;10.176;2023-08-31T09:31:17;15.50;99.90
7030;DHT22;3556;53.500;10.176;2023-08-31T09:33:50;15.50;99.90
7030;DHT22;3556;53.500;10.176;2023-08-31T09:36:16;15.50;99.90
7030;DHT22;3556;53.500;10.176;2023-08-31T09:38:43;15.40;99.90
7030;DHT22;3556;53.500;10.176;2023-08-31T09:41:09;15.40;99.90
7030;DHT22;3556;53.500;10.176;2023-08-31T09:43:35;15.30;99.90
7030;DHT22;3556;53.500;10.176;2023-08-31T09:46:03;15.30;99.90
7030;DHT22;3556;53.500;10.176;2023-08-31T09:48:29;15.40;99.90
7030;DHT22;3556;53.500;10.176;2023-08-31T09:50:56;15.40;99.90
7030;DHT22;3556;53.500;10.176;2023-08-31T09:53:24;15.40;99.90
7030;DHT22;3556;53.500;10.176;2023-08-31T09:55:51;15.40;99.90
7030;DHT22;3556;53.500;10.176;2023-08-31T09:58:19;15.40;99.90
7030;DHT22;3556;53.500;10.176;2023-08-31T10:00:52;15.40;99.90
7030;DHT22;3556;53.500;10.176;2023-08-31T10:03:18;15.30;99.90
7030;DHT22;3556;53.500;10.176;2023-08-31T10:05:44;15.30;99.90
7030;DHT22;3556;53.500;10.176;2023-08-31T10:08:11;15.30;99.90
7030;DHT22;3556;53.500;10.176;2023-08-31T10:10:37;15.40;99.90
7030;DHT22;3556;53.500;10.176;2023-08-31T10:13:06;15.30;99.90
7030;DHT22;3556;53.500;10.176;2023-08-31T10:15:33;15.20;99.90
7030;DHT22;3556;53.500;10.176;2023-08-31T10:18:00;15.10;99.90
7030;DHT22;3556;53.500;10.176;2023-08-31T10:20:26;15.10;99.90
7030;DHT22;3556;53.500;10.176;2023-08-31T10:23:03;15.10;99.90
7030;DHT22;3556;53.500;10.176;2023-08-31T10:28:23;15.30;99.90
7030;DHT22;3556;53.500;10.176;2023-08-31T10:33:40;15.90;99.90
7030;DHT22;3556;53.500;10.176;2023-08-31T10:36:16;16.20;99.90
7030;DHT22;3556;53.500;10.176;2023-08-31T10:38:47;16.40;99.90
7030;DHT22;3556;53.500;10.176;2023-08-31T10:46:29;16.90;99.90
7030;DHT22;3556;53.500;10.176;2023-08-31T10:51:23;16.60;99.90
7030;DHT22;3556;53.500;10.176;2023-08-31T10:53:49;16.60;99.90
7030;DHT22;3556;53.500;10.176;2023-08-31T10:56:18;16.70;99.90
7030;DHT22;3556;53.500;10.176;2023-08-31T10:59:00;16.80;99.90
7030;DHT22;3556;53.500;10.176;2023-08-31T11:01:54;17.00;99.90
7030;DHT22;3556;53.500;10.176;2023-08-31T11:04:24;17.10;99.90
7030;DHT22;3556;53.500;10.176;2023-08-31T11:09:39;17.50;99.90
7030;DHT22;3556;53.500;10.176;2023-08-31T11:12:05;17.70;99.90
7030;DHT22;3556;53.500;10.176;2023-08-31T11:14:30;17.90;99.90
7030;DHT22;3556;53.500;10.176;2023-08-31T11:16:56;18.20;99.90
7030;DHT22;3556;53.500;10.176;2023-08-31T11:19:22;18.30;99.90
7030;DHT22;3556;53.500;10.176;2023-08-31T11:21:48;18.30;99.90
7030;DHT22;3556;53.500;10.176;2023-08-31T11:24:16;18.40;99.90
7030;DHT22;3556;53.500;10.176;2023-08-31T11:26:42;18.50;99.90
7030;DHT22;3556;53.500;10.176;2023-08-31T11:29:08;18.40;99.90
7030;DHT22;3556;53.500;10.176;2023-08-31T11:31:38;18.20;99.90
7030;DHT22;3556;53.500;10.176;2023-08-31T11:34:11;18.00;99.90
7030;DHT22;3556;53.500;10.176;2023-08-31T11:36:37;17.80;99.90
7030;DHT22;3556;53.500;10.176;2023-08-31T11:39:03;17.90;99.90
7030;DHT22;3556;53.500;10.176;2023-08-31T11:41:36;18.10;99.90
7030;DHT22;3556;53.500;10.176;2023-08-31T11:44:06;18.50;99.90
7030;DHT22;3556;53.500;10.176;2023-08-31T11:46:32;18.90;99.90
7030;DHT22;3556;53.500;10.176;2023-08-31T11:49:01;19.20;99.90
7030;DHT22;3556;53.500;10.176;2023-08-31T11:51:30;19.40;99.90
7030;DHT22;3556;53.500;10.176;2023-08-31T11:53:57;19.70;99.90
7030;DHT22;3556;53.500;10.176;2023-08-31T11:56:25;19.90;99.90
7030;DHT22;3556;53.500;10.176;2023-08-31T11:58:51;20.10;99.90
7030;DHT22;3556;53.500;10.176;2023-08-31T12:01:21;20.20;99.90
7030;DHT22;3556;53.500;10.176;2023-08-31T12:03:47;20.30;99.90
7030;DHT22;3556;53.500;10.176;2023-08-31T12:06:17;20.40;99.90
7030;DHT22;3556;53.500;10.176;2023-08-31T12:08:43;20.50;99.90
7030;DHT22;3556;53.500;10.176;2023-08-31T12:11:09;20.60;99.90
7030;DHT22;3556;53.500;10.176;2023-08-31T12:13:35;20.60;99.90
7030;DHT22;3556;53.500;10.176;2023-08-31T12:16:00;20.60;99.90
7030;DHT22;3556;53.500;10.176;2023-08-31T12:18:36;20.40;99.90
7030;DHT22;3556;53.500;10.176;2023-08-31T12:21:02;20.50;99.90
7030;DHT22;3556;53.500;10.176;2023-08-31T12:23:30;20.50;99.90
7030;DHT22;3556;53.500;10.176;2023-08-31T12:25:55;20.40;99.90
7030;DHT22;3556;53.500;10.176;2023-08-31T12:28:23;20.20;99.90
7030;DHT22;3556;53.500;10.176;2023-08-31T12:30:49;19.90;99.90
7030;DHT22;3556;53.500;10.176;2023-08-31T12:33:16;19.80;99.90
7030;DHT22;3556;53.500;10.176;2023-08-31T12:35:41;19.70;99.90
7030;DHT22;3556;53.500;10.176;2023-08-31T12:38:07;19.90;99.90
7030;DHT22;3556;53.500;10.176;2023-08-31T12:40:32;20.20;99.90
7030;DHT22;3556;53.500;10.176;2023-08-31T12:42:58;20.50;99.90
7030;DHT22;3556;53.500;10.176;2023-08-31T12:45:24;20.70;99.90
7030;DHT22;3556;53.500;10.176;2023-08-31T12:47:49;20.90;99.90
7030;DHT22;3556;53.500;10.176;2023-08-31T12:50:15;21.00;99.90
7030;DHT22;3556;53.500;10.176;2023-08-31T12:52:41;20.90;99.90
7030;DHT22;3556;53.500;10.176;2023-08-31T12:55:11;21.00;99.90
7030;DHT22;3556;53.500;10.176;2023-08-31T12:57:37;21.10;99.90
7030;DHT22;3556;53.500;10.176;2023-08-31T13:00:03;21.10;99.90
7030;DHT22;3556;53.500;10.176;2023-08-31T13:02:30;20.80;99.90
7030;DHT22;3556;53.500;10.176;2023-08-31T13:04:56;20.20;99.90
7030;DHT22;3556;53.500;10.176;2023-08-31T13:07:22;19.70;99.90
7030;DHT22;3556;53.500;10.176;2023-08-31T13:09:47;18.90;99.90
7030;DHT22;3556;53.500;10.176;2023-08-31T13:12:13;18.10;99.90
7030;DHT22;3556;53.500;10.176;2023-08-31T13:14:38;17.60;99.90
7030;DHT22;3556;53.500;10.176;2023-08-31T13:17:04;17.20;99.90
7030;DHT22;3556;53.500;10.176;2023-08-31T13:19:31;17.00;99.90
7030;DHT22;3556;53.500;10.176;2023-08-31T13:21:57;17.10;99.90
7030;DHT22;3556;53.500;10.176;2023-08-31T13:24:22;17.40;99.90
7030;DHT22;3556;53.500;10.176;2023-08-31T13:26:48;17.80;99.90
7030;DHT22;3556;53.500;10.176;2023-08-31T13:29:14;18.20;99.90
7030;DHT22;3556;53.500;10.176;2023-08-31T13:31:40;18.60;99.90
7030;DHT22;3556;53.500;10.176;2023-08-31T13:34:06;18.80;99.90
7030;DHT22;3556;53.500;10.176;2023-08-31T13:36:36;18.90;99.90
7030;DHT22;3556;53.500;10.176;2023-08-31T13:39:01;18.90;99.90
7030;DHT22;3556;53.500;10.176;2023-08-31T13:41:28;18.80;99.90
7030;DHT22;3556;53.500;10.176;2023-08-31T13:43:54;18.80;99.90
7030;DHT22;3556;53.500;10.176;2023-08-31T13:46:19;18.90;99.90
7030;DHT22;3556;53.500;10.176;2023-08-31T13:48:45;19.10;99.90
7030;DHT22;3556;53.500;10.176;2023-08-31T13:51:11;19.40;99.90
7030;DHT22;3556;53.500;10.176;2023-08-31T13:53:36;19.60;99.90
7030;DHT22;3556;53.500;10.176;2023-08-31T13:56:02;19.70;99.90
7030;DHT22;3556;53.500;10.176;2023-08-31T13:58:28;19.80;99.90
7030;DHT22;3556;53.500;10.176;2023-08-31T14:00:53;19.80;99.90
7030;DHT22;3556;53.500;10.176;2023-08-31T14:03:19;19.60;99.90
7030;DHT22;3556;53.500;10.176;2023-08-31T14:05:48;19.30;99.90
7030;DHT22;3556;53.500;10.176;2023-08-31T14:08:14;19.10;99.90
7030;DHT22;3556;53.500;10.176;2023-08-31T14:10:40;19.00;99.90
7030;DHT22;3556;53.500;10.176;2023-08-31T14:13:06;19.20;99.90
7030;DHT22;3556;53.500;10.176;2023-08-31T14:15:32;19.40;99.90
7030;DHT22;3556;53.500;10.176;2023-08-31T14:17:58;19.40;99.90
7030;DHT22;3556;53.500;10.176;2023-08-31T14:20:24;19.40;99.90
7030;DHT22;3556;53.500;10.176;2023-08-31T14:22:50;19.30;99.90
7030;DHT22;3556;53.500;10.176;2023-08-31T14:25:16;19.30;99.90
7030;DHT22;3556;53.500;10.176;2023-08-31T14:27:42;19.30;99.90
7030;DHT22;3556;53.500;10.176;2023-08-31T14:30:08;19.10;99.90
7030;DHT22;3556;53.500;10.176;2023-08-31T14:32:34;18.90;99.90
7030;DHT22;3556;53.500;10.176;2023-08-31T14:35:00;18.70;99.90
7030;DHT22;3556;53.500;10.176;2023-08-31T14:37:26;18.80;99.90
7030;DHT22;3556;53.500;10.176;2023-08-31T14:39:52;18.70;99.90
7030;DHT22;3556;53.500;10.176;2023-08-31T14:42:17;18.70;99.90
7030;DHT22;3556;53.500;10.176;2023-08-31T14:44:46;18.70;99.90
7030;DHT22;3556;53.500;10.176;2023-08-31T14:47:12;18.80;99.90
7030;DHT22;3556;53.500;10.176;2023-08-31T14:49:39;18.80;99.90
7030;DHT22;3556;53.500;10.176;2023-08-31T14:52:08;18.60;99.90
7030;DHT22;3556;53.500;10.176;2023-08-31T14:54:34;18.40;99.90
7030;DHT22;3556;53.500;10.176;2023-08-31T14:57:00;18.40;99.90
7030;DHT22;3556;53.500;10.176;2023-08-31T14:59:25;18.60;99.90
7030;DHT22;3556;53.500;10.176;2023-08-31T15:01:51;18.70;99.90
7030;DHT22;3556;53.500;10.176;2023-08-31T15:04:17;18.90;99.90
7030;DHT22;3556;53.500;10.176;2023-08-31T15:06:43;18.80;99.90
7030;DHT22;3556;53.500;10.176;2023-08-31T15:09:09;18.70;99.90
7030;DHT22;3556;53.500;10.176;2023-08-31T15:11:35;18.60;99.90
7030;DHT22;3556;53.500;10.176;2023-08-31T15:14:02;18.40;99.90
7030;DHT22;3556;53.500;10.176;2023-08-31T15:16:29;18.20;99.90
7030;DHT22;3556;53.500;10.176;2023-08-31T15:18:55;18.10;99.90
7030;DHT22;3556;53.500;10.176;2023-08-31T15:21:20;18.00;99.90
7030;DHT22;3556;53.500;10.176;2023-08-31T15:23:46;18.00;99.90
7030;DHT22;3556;53.500;10.176;2023-08-31T15:26:12;17.80;99.90
7030;DHT22;3556;53.500;10.176;2023-08-31T15:28:40;17.70;99.90
7030;DHT22;3556;53.500;10.176;2023-08-31T15:31:06;17.60;99.90
7030;DHT22;3556;53.500;10.176;2023-08-31T15:33:32;17.60;99.90
7030;DHT22;3556;53.500;10.176;2023-08-31T15:36:07;17.60;99.90
7030;DHT22;3556;53.500;10.176;2023-08-31T15:38:34;17.60;99.90
7030;DHT22;3556;53.500;10.176;2023-08-31T15:41:01;17.60;99.90
7030;DHT22;3556;53.500;10.176;2023-08-31T15:43:34;17.50;99.90
7030;DHT22;3556;53.500;10.176;2023-08-31T15:46:02;17.40;99.90
7030;DHT22;3556;53.500;10.176;2023-08-31T15:48:28;17.40;99.90
7030;DHT22;3556;53.500;10.176;2023-08-31T15:50:57;17.30;99.90
7030;DHT22;3556;53.500;10.176;2023-08-31T15:53:23;17.20;99.90
7030;DHT22;3556;53.500;10.176;2023-08-31T15:55:50;17.10;99.90
7030;DHT22;3556;53.500;10.176;2023-08-31T15:58:16;17.10;99.90
7030;DHT22;3556;53.500;10.176;2023-08-31T16:00:42;17.00;99.90
7030;DHT22;3556;53.500;10.176;2023-08-31T16:03:08;16.90;99.90
7030;DHT22;3556;53.500;10.176;2023-08-31T16:05:35;16.90;99.90
7030;DHT22;3556;53.500;10.176;2023-08-31T16:08:01;16.80;99.90